Apollo Beach, Florida
Current Conditions -  °F | °C
As of 3:58 AM on Saturday 20 Dec 2014 (Local Time) from KMCF Reporting Station
Few Clouds Few Clouds  
Wind Chill: 56°   Ceiling: Unl
Heat Index: 56°   Visibility: 10mi
Dew Point: 54°   Wind: 5mph
Humidity: 93%   Direction: 90°E
Pressure: 30.05"   Gusts: NA
Location:  27.77°N, 82.39°W
Report Text: KMCF 200858Z AUTO 09004KT 10SM FEW230 13/12 A3005 RMK AO2 SLP179 T01340123 56003 $
Loading
Personal Weather Stations






























Interactive Weather Map New forecast layout! Learn more

10-Day Weather Forecast

Advertisements
Track Severe Weather on mobile